Terminal Aerodrome Forecast
Issued by NWS Grand Rapids, MI

Home | Current Version | Previous Version | Text Only | Print | Product List | Glossary On
Versions: 1 2 3 4 5 6 7 8 9 10 11 12 13 14 15 16 17 18 19
431
FTUS43 KGRR 182354
TAFGRR
TAF
KGRR 182354Z 1900/1924 28008KT P6SM SCT040 BKN080
     FM190600 27006KT P6SM BKN080
     FM191600 28009KT P6SM BKN040=

USA.gov is the U.S. government's official web portal to all federal, state and local government web resources and services.